The ORS Int. is the official adjudicator of ocean rowing records for Guinness World Records

 


Row Progress Maps and Charts

ARTEMIS  INVESTMENTS

 

 

 



 
 

 positions by
 

Service Argos

                                                                                     Photo courtesy of Artemis Investments


 


Daily positions at 18:00GMT


0.

 

 

 

31.07  13:00GMT  Positions  49:55:37N 6:26:53W

Date

Time (GMT)

Time BST

Distance to the Finish

  14:56 15:56  0 miles (0 km) (0 nm)
  13:00 14:00  6 miles (10 km) (5 nm)
  12:00 13:00 8 miles (13 km) (7 nm)
  11:00 12:00 12 miles (19 km) (10 nm)
  10:00 11:00 15 miles (24 km) (13 nm)
  09:00 10:00 19 miles (31 km) (17 nm)
  08:00 09:00 23 miles (37 km) (20 nm)
  07:00 08:00 26 miles (42 km) (23 nm)
  06:00 07:00 29 miles (47 km) (26 nm)
  03:00 04:00 38 miles (62 km) (33 nm)
July 31 2010 00:00 01:00 46 miles (74 km) (40 nm)
 

21:00

22:00

57 miles (91 km) (49 nm)

  18:00 19:00

69 miles (111 km) (60 nm)

  15:00 16:00

81 miles (131 km) (71 nm)

July 30 2010 12:00 13:00 90 miles (145 km) (78 nm)

Weather on Route >>>


Archive of some charts


 

Date

Time (GMT) Distance from the Start
(as the crow flies)
Duration of the row Average speed from the Start
in knots
July 31 2010 00:00 3200 miles (5151 km) (2781 nm) 1024.5 hours 2.71
July 30 2010 18:00 3179 miles (5115 km) (2762 nm) 1018.5 hours 2.71
July 29 2010 18:00 3096 miles (4983 km) (2690 nm) 994.5 hours 2.71
July 28 2010 18:00 3021 miles (4862 km) (2625 nm) 970.5 hours 2.70
July 27 2010 18:00 2917 miles (4695 km) (2535 nm) 946.5 hours 2.68
July 26 2010 18:00 2844 miles (4577 km) (2471 nm) 922.5 hours 2.68
July 25 2010 18:00 2765 miles (4450 km) (2403 nm) 896.5 hours 2.68
July 24 2010 18:00 2688 miles (4327 km) (2336 nm) 872.5 hours 2.68
July 23 2010 18:00 2604 miles (4190 km) (2263 nm) 848.5 hours 2.67
July 22 2010 18:00 2526 miles (4065 km) (2195 nm) 824.5 hours 2.66
July 21 2010 18:00 2468 miles (3972 km) (2145 nm) 800.5 hours 2.68
July 20 2010 18:00 2431 miles (3912 km) (2113 nm) 776.5 hours 2.72
July 19 2010 18:00 2357 miles (3794 km) (2049 nm) 752.5 hours 2.72
July 18 2010 18:00 2275 miles (3661 km) (1977 nm) 746.5 hours 2.65
July 17 2010 18:00 2241 miles (3606 km) (1947 nm) 722.5 hours 2.70
July 16 2010 18:00 2134 miles (3435 km) (1855 nm) 696.5 hours 2.66
July 15 2010 18:00 2059 miles (3313 km) (1789 nm)) 672.5 hours 2.66
July 14 2010 18:00 2007 miles (3229 km) (1744 nm)) 648.5 hours 2.69
July 13 2010 18:00 1902 miles (3060 km) (1653 nm) 624.5 hours 2.65
July 12 2010 18:00 11825 miles (2936 km) (1586 nm)) 600.5 hours 2.64
July 11 2010 18:00 11735 miles (2791 km) (1507 nm)) 576.5 hours 2.61
July 10 2010 18:00 1642 miles (2643 km) (1427 nm) 552.5 hours 2.58
July 09 2010 18;00 1542 miles (2481 km) (1340 nm) 528.5 hours 2.54
July 08 2010 18:00 1533 miles (2467 km) (1332 nm) 504.5 hours 2.64
July 07 2010 18:00 1473 miles (2371 km) (1280 nm) 480.5 hours 2.66
July 06 2010 18:00 1388 miles (2234 km) (1206 nm) 456.5 hours 2.64
July 05 2010 18:00 1318 miles (2122 km) (1146 nm) 432.5 hours 2.65
July 04 2010 18:00 1255 miles (2019 km) (1090 nm) 408.5 hours 2.67
July 03 2010 18:00  1221 miles (1966 km) (1061 nm) 384.5 hours 2.76
July 02 2010 18:00 1153 miles (1855 km) (1002 nm) 360.5 hours 2.78
July 01 2010 18:00 1080 miles (1737 km) (938 nm) 336.5 hours 2.79
June 30 2010 18:00 989 miles (1591 km) (859 nm) 312.5 hours 2.75
June 29 2010 18:00 896 miles (1442 km) (779 nm) 288.5 hours 2.70
June 28 2010 18:00 802 miles (1291 km) (697 nm) 264.5 hours 2.64
June 27 2010 18:00 742 miles (1193 km) (644 nm) 240.5 hours 2.68
June 26 2010 18:00 633 miles (1019 km) (550 nm) 216.5 hours 2.54
June 25 2010 18:00 560 miles (901 km) (487 nm) 192.5 hours 2.53
June 24 2010 18:00 468 miles (754 km) (407 nm) 168.5 hours 2.42
June 23 2010 18:00 402 miles (647 km) (350 nm) 144.5 hours 2.42
June 22 2010 18:00 352 miles (566 km) (305 nm) 120.5 hours 2.53
June 21 2010 18:00 284 miles (457 km) (247 nm) 96.5 hours 2.56
June 20 2010 18:00 215 miles (347km) (187 nm) 72.5 hours 2.58
June 19 2010 18:00 151 miles (242 km) (131 nm) 48.5 hours 2.70

June 18 2010

17:00

75 miles (120 km) (65 nm)

23.5 hours

2.76




Distance from Battery Park, Manhattan New York, NY. USA 
to St. Mary's,
Isles of Scilly, UK as the crow flies is 
3246 miles (5223 km) (2820  nautical miles)
Distance to Falmouth -
3295 miles (5303 km) (2864  nautical miles)

TIME ELAPSED

days   hours : minutes : seconds

43 : 21 : 26 : 48


Row began June 17th  2010 at 17:30GMT    Row finished July 31st 14:56:48GMT
Day44 -  July 31 2010  (14:56GMT) 49:54:30N 6:18:50W 69 miles (111 km) (60 n/miles)
Miles/Km rowed to date 3450 miles (5467 km) (2945 n/miles)
Miles/km from the Start  3248 miles (5226 km) (2822 n/miles)
Miles/km to St. Mary's,  Isles of Scilly   0 miles (0 km) (0 n/miles)

nautical mile=1minute of latitude (1.15 statute miles or 1.853 kilometers)


Day/Date  Latitude Longitude Progress
(time is GMT) (degrees/minutes/seconds) (degrees/minutes/seconds) (miles,km,nautical miles)
Day44 -  July 31 2010  (14:56GMT) 49:54:30N 6:18:50W 69 miles (111 km) (60 n/miles)
Day43 -  July 30 2010  (18:00GMT) 49:56:56N 7:51:14W 84 miles (136 km) (73 n/miles)
Day42 -  July 29 2010  (18:00GMT) 49:59:31N 9:44:53W 79 miles (128 km) (69 n/miles)
Day41 -  July 28 2010  (18:00GMT) 49:52:59N 11:31:08W 106 miles (170 km) (92 n/miles)
Day40 -  July 27 2010  (18:00GMT) 49:54:47N 13:53:24W 73 miles (118 km) (64 n/miles)
Day39 -  July 26 2010  (18:00GMT) 50:03:14N 15:31:08W 83 miles (134 km) (72 n/miles)
Day38 -  July 25 2010  (18:00GMT) 49:51:50N 17:21:22W 78 miles (126 km) (68 n/miles)
Day37 -  July 24 2010  (18:00GMT) 49:48:58N 19:06:36W 93 miles (150 km) (81 n/miles)
Day36 -  July 23 2010  (18:00GMT) 49:25:44N 21:05:42W 91 miles (146 km) (79 n/miles)
Day35 -  July 22 2010  (18:00GMT) 48:53:17N 22:55:12W 79 miles (127 km) (68 n/miles)
Day34 -  July 21 2010  (18:00GMT) 48:13:41N 24:19:05W 37 miles (60 km) (32 n/miles)
Day33 -  July 20 2010  (18:00GMT) 48:20:13N 25:06:22W 74 miles (118 km) (64 n/miles)
Day32 -  July 19 2010  (18:00GMT) 48:24:18N 26:42:07W 85 miles (137 km) (74 n/miles)
Day31 -  July 18 2010  (18:00GMT) 48:11:49N 28:31:34W 34 miles (55 km) (30 n/miles)
Day30 -  July 17 2010  (18:00GMT) 48:11:35N 29:15:50W 111 miles (179 km) (97 n/miles)
Day29 -  July 16 2010  (18:00GMT) 47:49:01N 31:35:35W 88 miles (142 km) (77 n/miles)
Day28 -  July 15 2010  (18:00GMT) 47:12:22N 33:15:14W 53 miles (86 km) (46 n/miles)
Day27 -  July 14 2010  (18:00GMT) 47:04:12N 34:21:58W 118 miles (190 km) (103 n/miles)
Day26  - July 13 2010  (18:00GMT) 46:20:06N 36:36:50W 80 miles (129 km) (70 n/miles)
Day25  - July 12 2010  (18:00GMT) 46:02:42N 38:13:59W 101 miles (162 km) (88 n/miles)
Day24  - July 11 2010  (18:00GMT) 45:24:54N 40:07:01W 95 miles (154 km) (83 n/miles)
Day23  - July 10 2010  (18:00GMT) 45:04:59N 42:01:01W 115 miles (186 km) (100 n/miles)
Day22  - July 09 2010  (18:00GMT) 44:17:10N 44:04:41W 13 miles (21 km) (11 n/miles)
Day21  - July 08 2010  (18:00GMT) 44:09:14N 44:15:32W 62 miles (99 km) (54 n/miles)
Day20  - July 07 2010  (18:00GMT) 43:56:42N 45:27:54W 86 miles (139 km) (75 n/miles)
Day19  - July 06 2010  (18:00GMT) 43:45:25N 47:10:26W 72 miles (116 km) (63 n/miles)
Day18  - July 05 2010  (18:00GMT) 43:30:32N 48:34:05W 66 miles (106 km) (57 n/miles)
Day17  - July 04 2010  (18:00GMT) 43:16:59N 49:49:59W 34 miles (54 km) (29 n/miles)
Day16  - July 03 2010  (18:00GMT) 43:13:12N 50:29:49W 68 miles (110 km) (60 n/miles)
Day15  - July 02 2010  (18:00GMT) 43:12:07N 51:51:11W 85 miles (137 km) (74 n/miles)
Day14  - July 01 2010  (18:00GMT) 42:34:23N 53:17:24W 103 miles (166 km) (90 n/miles)
Day13  - June 30 2010  (18:00GMT) 41:52:55N 55:04:26W 102 miles (163 km) (88 n/miles)
Day12  - June 29 2010  (18:00GMT) 41:20:13N 56:53:42W 117 miles (188 km) (102 n/miles)
Day11  - June 28 2010  (18:00GMT) 40:26:10N 58:47:13W 61 miles (98 km) (53 n/miles)
Day10  - June 27 2010  (18:00GMT) 40:28:12N 59:56:28W 109 miles (175 km) (94 n/miles)
Day 9  - June 26 2010  (18:00GMT) 40:28:37N 62:00:04W 74 miles (119 km) (64 n/miles)
Day 8  - June 25 2010  (18:00GMT) 40:38:31N 63:23:13W   92 miles (148 km) (80 n/miles)
Day 7  - June 24 2010  (18:00GMT) 40:37:34N 65:08:06W   67 miles (109 km) (59 n/miles)
Day 6  - June 23 2010  (18:00GMT)  40:29:31N 66:24:18W   54 miles (87 km) (47 n/miles)
Day 5  - June 22 2010  (18:00GMT)  40:18:25N 67:23:42W   68 miles (109 km) (59 n/miles)
Day 4  - June 21 2010  (18:00GMT)  40:18:43N 68:40:59W   69 miles (112 km) (60 n/miles)
Day 3  - June 20 2010  (18:00GMT)  40:17:42N 69:59:42W   67 miles (108 km) (58 n/miles)
Day 2  - June 19 2010  (18:00GMT)  40:13:34N 71:15:50W   80 miles (129 km) (70 n/miles)
Day 1  - June 18 2010  (17:00GMT) 40:13:52N 72:46:44W   75 miles (120 km) (65 n/miles)
Start day - June 17  2010 (17:30GMT) 40:42:40N 74:02:60W Start day

  1983-2018 Oceanrowing.com